Terminal Aerodrome Forecast
Issued by NWS

Home | Current Version | Previous Version | Text Only | Print | Product List | Glossary On
Versions: 1 2 3 4 5 6 7 8 9 10 11 12 13 14 15 16 17 18
000
FTUS44 KBMX 262000 CCA
TAFANB
TAF COR
KANB 262010Z 2620/2718 30012G18KT P6SM BKN030
     FM262300 30008KT P6SM SCT030 SCT250
     FM270300 29004KT P6SM BKN070
     FM270900 22002KT P6SM BKN040=

USA.gov is the U.S. government's official web portal to all federal, state and local government web resources and services.